createdAt,value
2023-02-02T00:00:38.034Z,0
2023-02-02T00:01:38.133Z,0
2023-02-02T00:02:38.174Z,0
2023-02-02T00:03:38.190Z,0
2023-02-02T00:04:38.117Z,0
2023-02-02T00:05:38.092Z,0
2023-02-02T00:06:38.061Z,0
2023-02-02T00:07:40.957Z,0
2023-02-02T00:08:38.116Z,0
2023-02-02T00:09:38.099Z,0
2023-02-02T00:10:38.140Z,0
2023-02-02T00:11:38.071Z,0
2023-02-02T00:12:40.885Z,0
2023-02-02T00:13:38.040Z,0
2023-02-02T00:14:38.079Z,0
2023-02-02T00:15:38.061Z,0
2023-02-02T00:16:38.402Z,0
2023-02-02T00:17:38.052Z,0
2023-02-02T00:18:41.078Z,0
2023-02-02T00:19:38.138Z,0
2023-02-02T00:20:38.091Z,0
2023-02-02T00:21:38.196Z,0
2023-02-02T00:22:38.086Z,0
2023-02-02T00:23:40.920Z,0
2023-02-02T00:24:38.109Z,0
2023-02-02T00:25:38.119Z,0
2023-02-02T00:26:38.324Z,0
2023-02-02T00:27:38.079Z,0
2023-02-02T00:28:38.084Z,0
2023-02-02T00:29:41.159Z,0
2023-02-02T00:30:38.228Z,0
2023-02-02T00:31:38.252Z,0
2023-02-02T00:32:38.051Z,0
2023-02-02T00:33:38.063Z,0
2023-02-02T00:34:41.197Z,0
2023-02-02T00:35:38.101Z,0
2023-02-02T00:36:38.101Z,0
2023-02-02T00:37:38.090Z,0
2023-02-02T00:38:38.135Z,0
2023-02-02T00:39:38.143Z,0
2023-02-02T00:40:40.928Z,0
2023-02-02T00:41:38.068Z,0
2023-02-02T00:42:38.123Z,0
2023-02-02T00:43:38.088Z,0
2023-02-02T00:44:38.084Z,0
2023-02-02T00:45:41.295Z,0
2023-02-02T00:47:38.161Z,0
2023-02-02T00:48:38.095Z,0
2023-02-02T00:49:38.139Z,0
2023-02-02T00:50:38.138Z,0
2023-02-02T00:51:42.022Z,0
2023-02-02T00:52:38.179Z,0
2023-02-02T00:53:38.142Z,0
2023-02-02T00:54:38.107Z,0
2023-02-02T00:55:38.135Z,0
2023-02-02T00:56:41.251Z,0
2023-02-02T00:57:38.139Z,0
2023-02-02T00:58:40.907Z,0
2023-02-02T00:59:38.099Z,0
2023-02-02T01:00:38.115Z,0
2023-02-02T01:01:38.130Z,0
2023-02-02T01:02:38.266Z,0
2023-02-02T01:03:38.129Z,0
2023-02-02T01:04:38.128Z,0
2023-02-02T01:05:38.329Z,0
2023-02-02T01:06:38.125Z,0
2023-02-02T01:07:40.998Z,0
2023-02-02T01:08:38.154Z,0
2023-02-02T01:09:38.124Z,0
2023-02-02T01:10:38.130Z,0
2023-02-02T01:11:38.279Z,0
2023-02-02T01:12:38.138Z,0
2023-02-02T01:13:38.182Z,0
2023-02-02T01:14:38.188Z,0
2023-02-02T01:15:38.148Z,0
2023-02-02T01:16:38.482Z,0
2023-02-02T01:17:38.125Z,0
2023-02-02T01:18:40.912Z,0
2023-02-02T01:19:38.125Z,0
2023-02-02T01:20:38.146Z,0
2023-02-02T01:21:38.141Z,0
2023-02-02T01:22:38.173Z,0
2023-02-02T01:23:38.232Z,0
2023-02-02T01:24:38.209Z,0
2023-02-02T01:25:38.169Z,0
2023-02-02T01:26:38.450Z,0
2023-02-02T01:27:38.190Z,0
2023-02-02T01:28:38.139Z,0
2023-02-02T01:29:40.996Z,0
2023-02-02T01:30:38.350Z,0
2023-02-02T01:31:38.299Z,0
2023-02-02T01:32:38.229Z,0
2023-02-02T01:33:38.157Z,0
2023-02-02T01:34:38.150Z,0
2023-02-02T01:35:38.179Z,0
2023-02-02T01:36:38.167Z,0
2023-02-02T01:37:38.143Z,0
2023-02-02T01:38:40.944Z,0
2023-02-02T01:39:39.987Z,0
2023-02-02T01:40:41.264Z,0
2023-02-02T01:41:38.189Z,0
2023-02-02T01:42:38.175Z,0
2023-02-02T01:43:39.160Z,0
2023-02-02T01:44:38.178Z,0
2023-02-02T01:45:38.775Z,0
2023-02-02T01:46:38.261Z,0
2023-02-02T01:47:38.287Z,0
2023-02-02T01:48:38.249Z,0
2023-02-02T01:49:41.207Z,0
2023-02-02T01:50:38.238Z,0
2023-02-02T01:51:41.248Z,0
2023-02-02T01:52:38.248Z,0
2023-02-02T01:53:38.203Z,0
2023-02-02T01:54:38.214Z,0
2023-02-02T01:55:38.272Z,0
2023-02-02T01:56:41.274Z,0
2023-02-02T01:57:38.190Z,0
2023-02-02T01:58:38.192Z,0
2023-02-02T01:59:38.325Z,0
2023-02-02T02:00:38.229Z,0
2023-02-02T02:01:38.346Z,0
2023-02-02T02:02:38.611Z,0
2023-02-02T02:03:38.211Z,0
2023-02-02T02:04:38.199Z,0
2023-02-02T02:05:38.292Z,0
2023-02-02T02:06:38.209Z,0
2023-02-02T02:07:38.218Z,0
2023-02-02T02:08:38.201Z,0
2023-02-02T02:09:38.281Z,0
2023-02-02T02:10:38.264Z,0
2023-02-02T02:11:38.237Z,0
2023-02-02T02:12:38.245Z,0
2023-02-02T02:13:38.216Z,0
2023-02-02T02:14:38.219Z,0
2023-02-02T02:15:38.258Z,0
2023-02-02T02:16:38.396Z,0
2023-02-02T02:17:38.228Z,0
2023-02-02T02:18:38.302Z,0
2023-02-02T02:19:38.227Z,0
2023-02-02T02:20:38.252Z,0
2023-02-02T02:21:38.253Z,0
2023-02-02T02:22:38.213Z,0
2023-02-02T02:23:41.050Z,0
2023-02-02T02:24:38.227Z,0
2023-02-02T02:25:38.282Z,0
2023-02-02T02:26:38.613Z,0
2023-02-02T02:27:38.266Z,0
2023-02-02T02:28:38.290Z,0
2023-02-02T02:29:38.243Z,0
2023-02-02T02:30:38.691Z,0
2023-02-02T02:31:38.738Z,0
2023-02-02T02:32:38.252Z,0
2023-02-02T02:33:38.271Z,0
2023-02-02T02:34:41.333Z,0
2023-02-02T02:35:38.295Z,0
2023-02-02T02:36:38.257Z,0
2023-02-02T02:37:38.258Z,0
2023-02-02T02:38:38.251Z,0
2023-02-02T02:39:41.032Z,0
2023-02-02T02:40:38.302Z,0
2023-02-02T02:41:38.287Z,0
2023-02-02T02:42:38.268Z,0
2023-02-02T02:43:38.250Z,0
2023-02-02T02:44:38.297Z,0
2023-02-02T02:45:41.548Z,0
2023-02-02T02:46:38.251Z,0
2023-02-02T02:47:38.193Z,0
2023-02-02T02:48:38.347Z,0
2023-02-02T02:49:38.282Z,0
2023-02-02T02:50:41.063Z,0
2023-02-02T02:51:38.275Z,0
2023-02-02T02:52:38.270Z,0
2023-02-02T02:53:38.277Z,0
2023-02-02T02:54:38.362Z,0
2023-02-02T02:55:38.369Z,0
2023-02-02T02:56:41.171Z,0
2023-02-02T02:57:38.326Z,0
2023-02-02T02:58:38.310Z,0
2023-02-02T02:59:38.291Z,0
2023-02-02T03:00:38.370Z,0
2023-02-02T03:01:38.789Z,0
2023-02-02T03:02:38.528Z,0
2023-02-02T03:03:38.305Z,0
2023-02-02T03:04:38.288Z,0
2023-02-02T03:05:39.410Z,0
2023-02-02T03:06:38.406Z,0
2023-02-02T03:07:41.356Z,0
2023-02-02T03:08:38.298Z,0
2023-02-02T03:09:38.320Z,0
2023-02-02T03:10:38.323Z,0
2023-02-02T03:11:38.317Z,0
2023-02-02T03:12:41.158Z,0
2023-02-02T03:13:38.405Z,0
2023-02-02T03:14:38.333Z,0
2023-02-02T03:15:38.525Z,0
2023-02-02T03:16:38.337Z,0
2023-02-02T03:17:38.372Z,0
2023-02-02T03:18:41.091Z,0
2023-02-02T03:19:38.358Z,0
2023-02-02T03:20:38.341Z,0
2023-02-02T03:21:38.329Z,0
2023-02-02T03:22:38.362Z,0
2023-02-02T03:23:41.366Z,0
2023-02-02T03:24:38.374Z,0
2023-02-02T03:25:38.411Z,0
2023-02-02T03:26:38.542Z,0
2023-02-02T03:27:38.330Z,0
2023-02-02T03:28:38.326Z,0
2023-02-02T03:29:38.316Z,0
2023-02-02T03:30:38.597Z,0
2023-02-02T03:31:38.800Z,0
2023-02-02T03:32:38.351Z,0
2023-02-02T03:33:38.345Z,0
2023-02-02T03:34:41.358Z,0
2023-02-02T03:35:38.410Z,0
2023-02-02T03:36:38.339Z,0
2023-02-02T03:37:38.333Z,0
2023-02-02T03:38:38.368Z,0
2023-02-02T03:39:38.364Z,0
2023-02-02T03:40:38.398Z,0
2023-02-02T03:41:38.369Z,0
2023-02-02T03:42:38.377Z,0
2023-02-02T03:43:38.352Z,0
2023-02-02T03:44:38.348Z,0
2023-02-02T03:45:41.447Z,0
2023-02-02T03:46:38.634Z,0
2023-02-02T03:47:38.375Z,0
2023-02-02T03:48:38.369Z,0
2023-02-02T03:49:38.376Z,0
2023-02-02T03:50:38.369Z,0
2023-02-02T03:51:38.372Z,0
2023-02-02T03:52:38.402Z,0
2023-02-02T03:53:38.395Z,0
2023-02-02T03:54:38.424Z,0
2023-02-02T03:55:38.372Z,0
2023-02-02T03:56:41.287Z,0
2023-02-02T03:57:38.361Z,0
2023-02-02T03:58:38.412Z,0
2023-02-02T03:59:38.356Z,0
2023-02-02T04:00:38.382Z,0
2023-02-02T04:01:38.525Z,0
2023-02-02T04:02:38.525Z,0
2023-02-02T04:03:38.404Z,0
2023-02-02T04:04:38.449Z,0
2023-02-02T04:05:39.441Z,0
2023-02-02T04:06:38.440Z,0
2023-02-02T04:07:41.165Z,0
2023-02-02T04:08:38.437Z,0
2023-02-02T04:09:38.411Z,0
2023-02-02T04:10:38.420Z,0
2023-02-02T04:11:39.381Z,0
2023-02-02T04:12:41.189Z,0
2023-02-02T04:13:38.395Z,0
2023-02-02T04:14:38.409Z,0
2023-02-02T04:15:38.408Z,0
2023-02-02T04:16:38.711Z,0
2023-02-02T04:17:38.515Z,0
2023-02-02T04:18:41.301Z,0
2023-02-02T04:19:38.416Z,0
2023-02-02T04:20:38.459Z,0
2023-02-02T04:21:38.456Z,0
2023-02-02T04:22:38.429Z,0
2023-02-02T04:23:41.241Z,0
2023-02-02T04:24:40.413Z,0
2023-02-02T04:25:38.427Z,0
2023-02-02T04:26:38.939Z,0
2023-02-02T04:27:38.434Z,0
2023-02-02T04:28:38.460Z,0
2023-02-02T04:29:38.426Z,0
2023-02-02T04:30:38.625Z,0
2023-02-02T04:31:38.645Z,0
2023-02-02T04:32:38.439Z,0
2023-02-02T04:33:38.470Z,0
2023-02-02T04:34:38.427Z,0
2023-02-02T04:35:38.411Z,0
2023-02-02T04:36:38.485Z,0
2023-02-02T04:37:38.483Z,0
2023-02-02T04:38:38.471Z,0
2023-02-02T04:39:38.487Z,0
2023-02-02T04:40:38.440Z,0
2023-02-02T04:41:38.499Z,0
2023-02-02T04:42:38.480Z,0
2023-02-02T04:43:38.473Z,0
2023-02-02T04:44:38.535Z,0
2023-02-02T04:45:38.672Z,0
2023-02-02T04:46:38.507Z,0
2023-02-02T04:47:38.473Z,0
2023-02-02T04:48:38.457Z,0
2023-02-02T04:49:38.509Z,0
2023-02-02T04:50:41.491Z,0
2023-02-02T04:51:38.487Z,0
2023-02-02T04:52:38.502Z,0
2023-02-02T04:53:38.485Z,0
2023-02-02T04:54:38.492Z,0
2023-02-02T04:55:38.517Z,0
2023-02-02T04:56:38.555Z,0
2023-02-02T04:57:38.301Z,0
2023-02-02T04:58:38.545Z,0
2023-02-02T04:59:40.419Z,0
2023-02-02T05:00:38.483Z,0
2023-02-02T05:01:41.404Z,0
2023-02-02T05:02:38.628Z,0
2023-02-02T05:03:38.531Z,0
2023-02-02T05:04:38.824Z,0
2023-02-02T05:05:38.526Z,0
2023-02-02T05:06:41.546Z,0
2023-02-02T05:07:38.492Z,0
2023-02-02T05:08:38.526Z,0
2023-02-02T05:09:38.509Z,0
2023-02-02T05:10:38.565Z,0
2023-02-02T05:11:38.539Z,0
2023-02-02T05:12:43.394Z,0
2023-02-02T05:13:38.494Z,0
2023-02-02T05:14:38.543Z,0
2023-02-02T05:15:38.547Z,0
2023-02-02T05:16:38.783Z,0
2023-02-02T05:17:41.570Z,0
2023-02-02T05:18:38.599Z,0
2023-02-02T05:19:38.520Z,0
2023-02-02T05:20:38.489Z,0
2023-02-02T05:21:38.549Z,0
2023-02-02T05:22:38.548Z,0
2023-02-02T05:23:41.508Z,0
2023-02-02T05:24:38.567Z,0
2023-02-02T05:25:38.518Z,0
2023-02-02T05:26:38.744Z,0
2023-02-02T05:27:38.592Z,0
2023-02-02T05:28:41.319Z,0
2023-02-02T05:29:38.534Z,0
2023-02-02T05:30:40.754Z,0
2023-02-02T05:31:38.744Z,0
2023-02-02T05:32:38.547Z,0
2023-02-02T05:33:38.539Z,0
2023-02-02T05:34:42.036Z,0
2023-02-02T05:35:39.537Z,0
2023-02-02T05:36:38.538Z,0
2023-02-02T05:37:38.665Z,0
2023-02-02T05:38:38.556Z,0
2023-02-02T05:39:41.357Z,0
2023-02-02T05:40:38.559Z,0
2023-02-02T05:41:39.606Z,0
2023-02-02T05:42:38.574Z,0
2023-02-02T05:43:38.667Z,0
2023-02-02T05:44:38.669Z,0
2023-02-02T05:45:41.642Z,0
2023-02-02T05:46:38.651Z,0
2023-02-02T05:47:38.592Z,0
2023-02-02T05:48:38.561Z,0
2023-02-02T05:49:38.550Z,0
2023-02-02T05:50:41.697Z,0
2023-02-02T05:51:38.593Z,0
2023-02-02T05:52:38.556Z,0
2023-02-02T05:53:38.608Z,0
2023-02-02T05:54:38.605Z,0
2023-02-02T05:55:39.607Z,0
2023-02-02T05:56:38.623Z,0
2023-02-02T05:57:38.579Z,0
2023-02-02T05:58:38.584Z,0
2023-02-02T05:59:38.597Z,0
2023-02-02T06:00:38.751Z,0
2023-02-02T06:01:41.725Z,0
2023-02-02T06:02:38.605Z,0
2023-02-02T06:03:39.238Z,0
2023-02-02T06:04:38.594Z,0
2023-02-02T06:05:38.592Z,0
2023-02-02T06:06:38.610Z,0
2023-02-02T06:07:38.605Z,0
2023-02-02T06:08:38.791Z,0
2023-02-02T06:09:39.634Z,0
2023-02-02T06:10:38.685Z,0
2023-02-02T06:11:38.602Z,0
2023-02-02T06:12:41.579Z,0
2023-02-02T06:13:38.591Z,0
2023-02-02T06:14:38.615Z,0
2023-02-02T06:15:41.731Z,0
2023-02-02T06:16:38.673Z,0
2023-02-02T06:17:38.618Z,0
2023-02-02T06:18:38.641Z,0
2023-02-02T06:19:38.613Z,0
2023-02-02T06:20:38.612Z,0
2023-02-02T06:21:38.652Z,0
2023-02-02T06:22:38.610Z,0
2023-02-02T06:23:41.661Z,0
2023-02-02T06:24:38.612Z,0
2023-02-02T06:25:38.666Z,0
2023-02-02T06:26:38.929Z,0
2023-02-02T06:27:38.700Z,0
2023-02-02T06:28:38.651Z,0
2023-02-02T06:29:38.632Z,0
2023-02-02T06:30:38.767Z,0
2023-02-02T06:31:39.525Z,0
2023-02-02T06:32:38.638Z,0
2023-02-02T06:33:38.667Z,0
2023-02-02T06:34:41.462Z,0
2023-02-02T06:35:38.662Z,0
2023-02-02T06:36:38.676Z,0
2023-02-02T06:37:38.661Z,0
2023-02-02T06:38:38.664Z,0
2023-02-02T06:39:41.494Z,0
2023-02-02T06:40:38.724Z,0
2023-02-02T06:41:38.765Z,0
2023-02-02T06:42:38.661Z,0
2023-02-02T06:43:38.685Z,0
2023-02-02T06:44:38.626Z,0
2023-02-02T06:45:41.774Z,0
2023-02-02T06:46:38.922Z,0
2023-02-02T06:47:38.700Z,0
2023-02-02T06:48:38.679Z,0
2023-02-02T06:49:38.811Z,0
2023-02-02T06:50:41.740Z,0
2023-02-02T06:51:38.666Z,0
2023-02-02T06:52:38.692Z,4
2023-02-02T06:53:38.698Z,0
2023-02-02T06:54:38.689Z,0
2023-02-02T06:55:38.696Z,4
2023-02-02T06:56:38.676Z,4
2023-02-02T06:57:38.740Z,0
2023-02-02T06:58:38.686Z,0
2023-02-02T06:59:38.685Z,0
2023-02-02T07:00:38.640Z,0
2023-02-02T07:01:38.932Z,0
2023-02-02T07:02:38.847Z,4
2023-02-02T07:03:38.741Z,4
2023-02-02T07:04:38.672Z,4
2023-02-02T07:05:39.115Z,0
2023-02-02T07:06:38.723Z,4
2023-02-02T07:07:38.734Z,4
2023-02-02T07:08:38.701Z,4
2023-02-02T07:09:38.666Z,4
2023-02-02T07:11:25.936Z,4
2023-02-02T07:11:49.826Z,4
2023-02-02T07:12:38.919Z,4
2023-02-02T07:13:38.706Z,4
2023-02-02T07:14:38.724Z,4
2023-02-02T07:15:41.729Z,8
2023-02-02T07:16:38.738Z,4
2023-02-02T07:17:41.745Z,4
2023-02-02T07:18:38.727Z,4
2023-02-02T07:19:38.892Z,4
2023-02-02T07:20:38.720Z,4
2023-02-02T07:21:41.973Z,4
2023-02-02T07:22:38.730Z,4
2023-02-02T07:23:38.726Z,4
2023-02-02T07:24:38.695Z,8
2023-02-02T07:25:38.785Z,12
2023-02-02T07:26:38.981Z,8
2023-02-02T07:27:38.722Z,12
2023-02-02T07:28:41.528Z,12
2023-02-02T07:29:38.704Z,12
2023-02-02T07:30:38.966Z,12
2023-02-02T07:31:42.561Z,12
2023-02-02T07:32:38.769Z,16
2023-02-02T07:33:41.732Z,16
2023-02-02T07:34:38.726Z,16
2023-02-02T07:35:38.767Z,16
2023-02-02T07:36:38.765Z,20
2023-02-02T07:37:40.771Z,16
2023-02-02T07:38:38.757Z,16
2023-02-02T07:39:41.950Z,20
2023-02-02T07:40:38.752Z,16
2023-02-02T07:41:38.752Z,20
2023-02-02T07:42:38.791Z,20
2023-02-02T07:43:38.589Z,16
2023-02-02T07:44:41.509Z,20
2023-02-02T07:45:39.189Z,20
2023-02-02T07:46:40.704Z,20
2023-02-02T07:47:38.792Z,20
2023-02-02T07:48:38.754Z,24
2023-02-02T07:49:38.765Z,20
2023-02-02T07:50:41.833Z,24
2023-02-02T07:51:46.420Z,20
2023-02-02T07:52:38.802Z,20
2023-02-02T07:53:38.809Z,20
2023-02-02T07:54:38.861Z,20
2023-02-02T07:55:41.799Z,20
2023-02-02T07:56:38.751Z,20
2023-02-02T07:57:38.795Z,20
2023-02-02T07:58:38.755Z,20
2023-02-02T07:59:39.257Z,20
2023-02-02T08:00:39.084Z,20
2023-02-02T08:01:41.973Z,20
2023-02-02T08:02:38.997Z,20
2023-02-02T08:03:38.842Z,20
2023-02-02T08:04:38.775Z,20
2023-02-02T08:05:38.785Z,20
2023-02-02T08:06:41.915Z,20
2023-02-02T08:07:38.793Z,24
2023-02-02T08:08:38.787Z,24
2023-02-02T08:09:38.821Z,20
2023-02-02T08:10:38.853Z,20
2023-02-02T08:11:38.839Z,20
2023-02-02T08:12:41.605Z,20
2023-02-02T08:13:38.810Z,20
2023-02-02T08:14:38.719Z,20
2023-02-02T08:15:38.499Z,20
2023-02-02T08:16:39.229Z,20
2023-02-02T08:17:41.439Z,20
2023-02-02T08:18:38.469Z,20
2023-02-02T08:19:38.840Z,24
2023-02-02T08:20:38.787Z,24
2023-02-02T08:21:38.835Z,20
2023-02-02T08:22:38.866Z,20
2023-02-02T08:23:38.518Z,24
2023-02-02T08:24:38.804Z,24
2023-02-02T08:25:38.918Z,24
2023-02-02T08:26:39.102Z,24
2023-02-02T08:27:40.693Z,24
2023-02-02T08:28:41.476Z,24
2023-02-02T08:29:38.860Z,24
2023-02-02T08:30:39.053Z,24
2023-02-02T08:31:39.090Z,24
2023-02-02T08:32:38.893Z,24
2023-02-02T08:33:39.371Z,20
2023-02-02T08:34:38.636Z,20
2023-02-02T08:35:38.854Z,20
2023-02-02T08:36:38.853Z,24
2023-02-02T08:37:38.874Z,20
2023-02-02T08:38:38.883Z,20
2023-02-02T08:39:42.020Z,20
2023-02-02T08:40:39.163Z,20
2023-02-02T08:41:38.883Z,24
2023-02-02T08:42:39.922Z,24
2023-02-02T08:43:39.477Z,24
2023-02-02T08:46:10.328Z,28
2023-02-02T08:46:23.312Z,28
2023-02-02T08:47:21.859Z,32
2023-02-02T08:48:21.942Z,28
2023-02-02T08:49:21.551Z,24
2023-02-02T08:50:21.548Z,28
2023-02-02T08:51:21.555Z,28
2023-02-02T08:52:21.554Z,28
2023-02-02T08:53:21.585Z,32
2023-02-02T08:54:24.354Z,32
2023-02-02T08:55:21.601Z,36
2023-02-02T08:56:21.614Z,32
2023-02-02T08:57:21.595Z,36
2023-02-02T08:58:21.641Z,36
2023-02-02T08:59:24.289Z,32
2023-02-02T09:00:21.623Z,28
2023-02-02T09:01:22.233Z,28
2023-02-02T09:02:21.799Z,28
2023-02-02T09:03:21.593Z,32
2023-02-02T09:04:21.646Z,36
2023-02-02T09:05:25.276Z,32
2023-02-02T09:06:21.613Z,32
2023-02-02T09:07:23.462Z,36
2023-02-02T09:08:21.850Z,36
2023-02-02T09:09:21.672Z,32
2023-02-02T09:10:24.821Z,36
2023-02-02T09:11:21.582Z,40
2023-02-02T09:12:21.584Z,40
2023-02-02T09:13:23.365Z,40
2023-02-02T09:14:21.610Z,32
2023-02-02T09:15:21.795Z,36
2023-02-02T09:16:24.718Z,40
2023-02-02T09:17:21.586Z,36
2023-02-02T09:18:21.619Z,36
2023-02-02T09:19:21.642Z,40
2023-02-02T09:20:23.849Z,36
2023-02-02T09:21:24.697Z,36
2023-02-02T09:22:21.586Z,36
2023-02-02T09:23:21.666Z,36
2023-02-02T09:24:21.599Z,36
2023-02-02T09:25:21.594Z,40
2023-02-02T09:26:22.023Z,40
2023-02-02T09:27:24.324Z,44
2023-02-02T09:28:21.633Z,40
2023-02-02T09:29:21.601Z,40
2023-02-02T09:30:21.690Z,36
2023-02-02T09:31:22.051Z,40
2023-02-02T09:32:24.668Z,32
2023-02-02T09:33:21.647Z,36
2023-02-02T09:34:21.673Z,32
2023-02-02T09:35:21.679Z,36
2023-02-02T09:36:21.663Z,36
2023-02-02T09:37:21.596Z,40
2023-02-02T09:38:24.574Z,48
2023-02-02T09:39:21.626Z,44
2023-02-02T09:40:21.773Z,44
2023-02-02T09:41:21.630Z,40
2023-02-02T09:42:21.623Z,36
2023-02-02T09:43:24.731Z,40
2023-02-02T09:44:21.603Z,40
2023-02-02T09:45:21.746Z,44
2023-02-02T09:46:21.847Z,48
2023-02-02T09:47:21.629Z,40
2023-02-02T09:48:21.635Z,40
2023-02-02T09:49:24.595Z,44
2023-02-02T09:50:21.699Z,40
2023-02-02T09:51:21.641Z,40
2023-02-02T09:52:21.781Z,40
2023-02-02T09:53:21.679Z,40
2023-02-02T09:54:24.745Z,40
2023-02-02T09:55:21.703Z,36
2023-02-02T09:56:21.658Z,36
2023-02-02T09:57:21.631Z,48
2023-02-02T09:58:21.716Z,48
2023-02-02T09:59:29.235Z,52
2023-02-02T10:00:21.770Z,52
2023-02-02T10:01:22.063Z,48
2023-02-02T10:02:21.654Z,44
2023-02-02T10:03:21.745Z,44
2023-02-02T10:04:21.818Z,48
2023-02-02T10:05:21.729Z,48
2023-02-02T10:06:21.659Z,56
2023-02-02T10:07:21.677Z,56
2023-02-02T10:08:38.952Z,60
2023-02-02T10:09:21.751Z,60
2023-02-02T10:10:24.052Z,64
2023-02-02T10:11:21.685Z,68
2023-02-02T10:12:21.692Z,64
2023-02-02T10:13:21.676Z,64
2023-02-02T10:14:21.786Z,68
2023-02-02T10:15:21.668Z,72
2023-02-02T10:16:22.111Z,72
2023-02-02T10:17:21.764Z,68
2023-02-02T10:18:21.650Z,72
2023-02-02T10:19:21.691Z,68
2023-02-02T10:20:21.739Z,68
2023-02-02T10:21:24.538Z,72
2023-02-02T10:22:21.729Z,80
2023-02-02T10:23:21.724Z,80
2023-02-02T10:24:21.745Z,80
2023-02-02T10:25:21.694Z,84
2023-02-02T10:26:21.964Z,84
2023-02-02T10:27:21.673Z,76
2023-02-02T10:28:21.704Z,68
2023-02-02T10:29:21.722Z,80
2023-02-02T10:30:21.714Z,96
2023-02-02T10:31:22.328Z,100
2023-02-02T10:32:24.836Z,104
2023-02-02T10:33:21.697Z,108
2023-02-02T10:34:21.716Z,108
2023-02-02T10:35:22.112Z,128
2023-02-02T10:36:21.703Z,124
2023-02-02T10:37:24.736Z,120
2023-02-02T10:38:21.732Z,120
2023-02-02T10:39:21.757Z,144
2023-02-02T10:40:21.871Z,132
2023-02-02T10:41:21.767Z,128
2023-02-02T10:42:21.767Z,124
2023-02-02T10:43:24.740Z,120
2023-02-02T10:44:21.766Z,132
2023-02-02T10:45:21.755Z,132
2023-02-02T10:46:22.107Z,132
2023-02-02T10:47:21.713Z,124
2023-02-02T10:48:24.743Z,132
2023-02-02T10:49:21.849Z,140
2023-02-02T10:50:22.006Z,148
2023-02-02T10:51:21.810Z,168
2023-02-02T10:52:21.762Z,156
2023-02-02T10:53:21.734Z,156
2023-02-02T10:54:21.774Z,180
2023-02-02T10:55:21.800Z,172
2023-02-02T10:56:21.813Z,164
2023-02-02T10:57:21.720Z,176
2023-02-02T10:58:21.775Z,208
2023-02-02T10:59:24.522Z,212
2023-02-02T11:00:25.771Z,188
2023-02-02T11:01:21.886Z,180
2023-02-02T11:02:28.025Z,184
2023-02-02T11:03:21.764Z,192
2023-02-02T11:04:21.795Z,176
2023-02-02T11:05:21.740Z,196
2023-02-02T11:06:21.735Z,204
2023-02-02T11:07:21.765Z,208
2023-02-02T11:08:21.768Z,228
2023-02-02T11:09:23.453Z,236
2023-02-02T11:10:25.000Z,220
2023-02-02T11:11:22.551Z,236
2023-02-02T11:12:22.165Z,252
2023-02-02T11:13:21.769Z,276
2023-02-02T11:14:21.796Z,260
2023-02-02T11:15:21.736Z,228
2023-02-02T11:16:22.215Z,228
2023-02-02T11:17:21.780Z,196
2023-02-02T11:18:21.758Z,204
2023-02-02T11:19:21.787Z,204
2023-02-02T11:20:22.030Z,208
2023-02-02T11:21:24.848Z,200
2023-02-02T11:22:21.767Z,220
2023-02-02T11:23:21.748Z,240
2023-02-02T11:24:21.839Z,244
2023-02-02T11:25:21.825Z,228
2023-02-02T11:26:22.358Z,236
2023-02-02T11:27:21.800Z,224
2023-02-02T11:28:21.888Z,192
2023-02-02T11:29:21.818Z,196
2023-02-02T11:30:21.955Z,192
2023-02-02T11:31:22.345Z,200
2023-02-02T11:32:24.829Z,208
2023-02-02T11:33:21.750Z,236
2023-02-02T11:34:24.932Z,236
2023-02-02T11:35:21.798Z,220
2023-02-02T11:36:21.903Z,240
2023-02-02T11:37:24.566Z,228
2023-02-02T11:38:21.783Z,216
2023-02-02T11:39:21.781Z,228
2023-02-02T11:40:21.821Z,220
2023-02-02T11:41:21.849Z,228
2023-02-02T11:42:21.795Z,212
2023-02-02T11:43:24.577Z,212
2023-02-02T11:44:21.850Z,204
2023-02-02T11:45:21.912Z,208
2023-02-02T11:46:22.206Z,216
2023-02-02T11:47:21.823Z,220
2023-02-02T11:48:24.855Z,240
2023-02-02T11:49:21.937Z,252
2023-02-02T11:50:21.907Z,232
2023-02-02T11:51:23.516Z,204
2023-02-02T11:52:21.824Z,220
2023-02-02T11:53:21.810Z,208
2023-02-02T11:54:24.944Z,192
2023-02-02T11:55:21.841Z,192
2023-02-02T11:56:21.937Z,196
2023-02-02T11:57:21.844Z,204
2023-02-02T11:58:21.832Z,192
2023-02-02T11:59:23.797Z,196
2023-02-02T12:00:21.830Z,196
2023-02-02T12:01:21.816Z,204
2023-02-02T12:02:22.157Z,204
2023-02-02T12:03:21.795Z,208
2023-02-02T12:04:22.116Z,208
2023-02-02T12:05:24.642Z,216
2023-02-02T12:06:21.844Z,212
2023-02-02T12:07:21.851Z,224
2023-02-02T12:08:21.861Z,208
2023-02-02T12:09:22.032Z,228
2023-02-02T12:10:25.313Z,224
2023-02-02T12:11:21.832Z,228
2023-02-02T12:12:21.856Z,208
2023-02-02T12:13:21.865Z,224
2023-02-02T12:14:21.907Z,244
2023-02-02T12:15:21.828Z,244
2023-02-02T12:16:24.934Z,244
2023-02-02T12:17:21.849Z,232
2023-02-02T12:18:21.954Z,208
2023-02-02T12:19:21.891Z,200
2023-02-02T12:20:21.864Z,216
2023-02-02T12:21:24.926Z,236
2023-02-02T12:22:22.282Z,232
2023-02-02T12:23:21.903Z,240
2023-02-02T12:24:21.925Z,240
2023-02-02T12:25:21.866Z,244
2023-02-02T12:26:22.335Z,256
2023-02-02T12:27:21.859Z,248
2023-02-02T12:28:21.848Z,232
2023-02-02T12:29:21.901Z,224
2023-02-02T12:30:21.851Z,248
2023-02-02T12:31:22.238Z,264
2023-02-02T12:32:21.861Z,248
2023-02-02T12:33:21.837Z,248
2023-02-02T12:34:21.942Z,224
2023-02-02T12:35:21.843Z,228
2023-02-02T12:36:22.050Z,244
2023-02-02T12:37:21.905Z,264
2023-02-02T12:38:21.876Z,268
2023-02-02T12:39:21.882Z,256
2023-02-02T12:40:21.884Z,244
2023-02-02T12:41:21.858Z,252
2023-02-02T12:42:22.244Z,244
2023-02-02T12:43:21.905Z,236
2023-02-02T12:44:21.947Z,236
2023-02-02T12:45:21.849Z,228
2023-02-02T12:46:22.359Z,208
2023-02-02T12:47:21.893Z,192
2023-02-02T12:48:24.663Z,192
2023-02-02T12:49:21.891Z,216
2023-02-02T12:50:21.921Z,220
2023-02-02T12:51:21.902Z,224
2023-02-02T12:52:21.858Z,216
2023-02-02T12:53:21.919Z,192
2023-02-02T12:54:59.305Z,216
2023-02-02T12:55:21.883Z,220
2023-02-02T12:56:22.146Z,216
2023-02-02T12:57:21.887Z,240
2023-02-02T12:58:22.119Z,232
2023-02-02T12:59:24.707Z,232
2023-02-02T13:00:21.916Z,232
2023-02-02T13:01:22.215Z,216
2023-02-02T13:02:22.101Z,212
2023-02-02T13:03:21.912Z,204
2023-02-02T13:04:24.742Z,216
2023-02-02T13:05:21.918Z,228
2023-02-02T13:06:22.013Z,240
2023-02-02T13:07:21.935Z,240
2023-02-02T13:08:21.940Z,252
2023-02-02T13:09:24.598Z,264
2023-02-02T13:10:25.419Z,240
2023-02-02T13:11:21.883Z,228
2023-02-02T13:12:21.967Z,224
2023-02-02T13:13:21.910Z,224
2023-02-02T13:14:21.916Z,212
2023-02-02T13:15:26.151Z,204
2023-02-02T13:16:25.068Z,196
2023-02-02T13:17:21.931Z,204
2023-02-02T13:18:21.914Z,188
2023-02-02T13:19:21.929Z,184
2023-02-02T13:20:22.048Z,196
2023-02-02T13:21:22.132Z,192
2023-02-02T13:22:21.941Z,180
2023-02-02T13:23:22.354Z,188
2023-02-02T13:24:21.980Z,200
2023-02-02T13:25:22.082Z,212
2023-02-02T13:26:25.574Z,212
2023-02-02T13:27:22.309Z,208
2023-02-02T13:28:21.955Z,196
2023-02-02T13:29:21.922Z,208
2023-02-02T13:30:22.135Z,220
2023-02-02T13:31:22.611Z,236
2023-02-02T13:32:21.967Z,228
2023-02-02T13:33:22.242Z,232
2023-02-02T13:34:21.934Z,220
2023-02-02T13:35:22.053Z,216
2023-02-02T13:36:23.199Z,220
2023-02-02T13:37:27.838Z,220
2023-02-02T13:38:21.968Z,240
2023-02-02T13:39:21.962Z,228
2023-02-02T13:40:21.998Z,208
2023-02-02T13:41:21.949Z,216
2023-02-02T13:42:21.995Z,188
2023-02-02T13:43:21.991Z,196
2023-02-02T13:44:23.016Z,192
2023-02-02T13:45:22.092Z,212
2023-02-02T13:46:22.290Z,236
2023-02-02T13:47:21.951Z,236
2023-02-02T13:48:24.745Z,208
2023-02-02T13:49:21.975Z,212
2023-02-02T13:50:21.978Z,208
2023-02-02T13:51:21.983Z,200
2023-02-02T13:52:21.975Z,180
2023-02-02T13:53:22.061Z,164
2023-02-02T13:54:22.049Z,172
2023-02-02T13:55:22.206Z,168
2023-02-02T13:56:22.048Z,172
2023-02-02T13:57:21.990Z,184
2023-02-02T13:58:21.980Z,188
2023-02-02T13:59:25.149Z,184
2023-02-02T14:00:22.025Z,176
2023-02-02T14:01:22.259Z,140
2023-02-02T14:02:22.233Z,104
2023-02-02T14:03:21.998Z,84
2023-02-02T14:04:24.806Z,88
2023-02-02T14:05:21.994Z,108
2023-02-02T14:06:21.979Z,128
2023-02-02T14:07:21.998Z,132
2023-02-02T14:08:21.960Z,148
2023-02-02T14:09:22.028Z,168
2023-02-02T14:10:24.872Z,160
2023-02-02T14:11:22.007Z,144
2023-02-02T14:12:21.993Z,124
2023-02-02T14:13:22.009Z,100
2023-02-02T14:14:22.003Z,104
2023-02-02T14:15:24.181Z,108
2023-02-02T14:16:22.142Z,108
2023-02-02T14:17:22.012Z,112
2023-02-02T14:18:21.979Z,112
2023-02-02T14:19:22.014Z,108
2023-02-02T14:20:22.010Z,104
2023-02-02T14:21:22.177Z,108
2023-02-02T14:22:22.023Z,120
2023-02-02T14:23:22.029Z,124
2023-02-02T14:24:21.996Z,100
2023-02-02T14:25:22.076Z,76